createdAt,value
2018-12-15T00:01:00.353Z,68.49
2018-12-15T00:03:28.547Z,67.05
2018-12-15T00:05:56.725Z,66.75
2018-12-15T00:08:24.886Z,66.07
2018-12-15T00:10:53.075Z,67.63
2018-12-15T00:13:21.237Z,68.93
2018-12-15T00:15:49.788Z,68.99
2018-12-15T00:18:18.779Z,68.15
2018-12-15T00:20:47.019Z,68.63
2018-12-15T00:23:15.172Z,68.20
2018-12-15T00:25:43.327Z,69.18
2018-12-15T00:28:11.988Z,68.43
2018-12-15T00:30:40.199Z,74.04
2018-12-15T00:33:08.440Z,71.27
2018-12-15T00:35:36.583Z,70.47
2018-12-15T00:38:04.716Z,70.44
2018-12-15T00:40:33.265Z,70.46
2018-12-15T00:43:01.469Z,70.75
2018-12-15T00:45:29.721Z,70.18
2018-12-15T00:47:58.296Z,70.16
2018-12-15T00:50:26.631Z,69.93
2018-12-15T00:52:54.875Z,69.84
2018-12-15T00:55:23.063Z,69.96
2018-12-15T00:57:51.232Z,69.70
2018-12-15T01:00:19.612Z,69.84
2018-12-15T01:02:47.866Z,69.94
2018-12-15T01:05:16.157Z,73.01
2018-12-15T01:07:44.539Z,72.08
2018-12-15T01:10:12.711Z,70.67
2018-12-15T01:12:42.288Z,72.00
2018-12-15T01:15:10.486Z,73.09
2018-12-15T01:17:38.767Z,74.94
2018-12-15T01:20:07.071Z,75.33
2018-12-15T01:22:35.211Z,74.19
2018-12-15T01:25:03.400Z,73.73
2018-12-15T01:27:31.540Z,73.12
2018-12-15T01:29:59.735Z,73.89
2018-12-15T01:32:27.933Z,73.27
2018-12-15T01:34:56.092Z,72.24
2018-12-15T01:37:24.259Z,72.02
2018-12-15T01:39:52.418Z,73.44
2018-12-15T01:42:20.616Z,78.79
2018-12-15T01:44:48.855Z,78.28
2018-12-15T01:47:17.045Z,74.34
2018-12-15T01:49:45.241Z,68.76
2018-12-15T01:52:13.600Z,73.34
2018-12-15T01:54:41.826Z,73.46
2018-12-15T01:57:10.066Z,70.79
2018-12-15T01:59:38.332Z,71.82
2018-12-15T02:02:06.981Z,71.88
2018-12-15T02:04:35.194Z,71.94
2018-12-15T02:07:03.328Z,71.82
2018-12-15T02:09:31.871Z,71.98
2018-12-15T02:12:00.104Z,74.99
2018-12-15T02:14:28.410Z,73.25
2018-12-15T02:16:56.570Z,72.02
2018-12-15T02:19:24.832Z,71.05
2018-12-15T02:21:52.967Z,70.55
2018-12-15T02:24:21.188Z,71.12
2018-12-15T02:26:49.363Z,70.55
2018-12-15T02:29:17.629Z,70.57
2018-12-15T02:31:45.765Z,70.50
2018-12-15T02:34:13.945Z,69.52
2018-12-15T02:36:42.161Z,70.23
2018-12-15T02:39:10.325Z,70.49
2018-12-15T02:41:38.955Z,70.65
2018-12-15T02:44:07.112Z,71.42
2018-12-15T02:46:35.268Z,69.91
2018-12-15T02:49:03.438Z,71.56
2018-12-15T02:51:31.607Z,72.01
2018-12-15T02:54:00.153Z,70.96
2018-12-15T02:56:28.362Z,71.34
2018-12-15T02:58:56.496Z,71.32
2018-12-15T03:01:24.712Z,71.81
2018-12-15T03:03:52.956Z,70.68
2018-12-15T03:06:21.439Z,71.04
2018-12-15T03:08:49.615Z,70.86
2018-12-15T03:11:17.748Z,70.72
2018-12-15T03:13:46.383Z,71.46
2018-12-15T03:16:14.569Z,71.31
2018-12-15T03:18:42.728Z,71.73
2018-12-15T03:21:11.015Z,71.08
2018-12-15T03:23:39.285Z,69.35
2018-12-15T03:26:07.568Z,69.62
2018-12-15T03:28:35.739Z,70.89
2018-12-15T03:31:04.395Z,67.95
2018-12-15T03:33:32.596Z,68.79
2018-12-15T03:36:00.778Z,70.88
2018-12-15T03:38:28.956Z,69.59
2018-12-15T03:40:57.123Z,68.88
2018-12-15T03:43:25.308Z,68.32
2018-12-15T03:45:53.545Z,68.14
2018-12-15T03:48:21.732Z,69.08
2018-12-15T03:50:50.021Z,70.06
2018-12-15T03:53:18.170Z,69.89
2018-12-15T03:55:46.317Z,70.21
2018-12-15T03:58:14.639Z,69.48
2018-12-15T04:00:42.878Z,70.04
2018-12-15T04:03:11.101Z,70.12
2018-12-15T04:05:39.264Z,69.18
2018-12-15T04:08:07.814Z,68.35
2018-12-15T04:10:36.018Z,68.29
2018-12-15T04:13:04.195Z,69.39
2018-12-15T04:15:32.376Z,65.20
2018-12-15T04:18:03.713Z,66.62
2018-12-15T04:20:31.209Z,67.21
2018-12-15T04:22:59.364Z,68.12
2018-12-15T04:25:27.507Z,67.88
2018-12-15T04:27:55.862Z,67.21
2018-12-15T04:30:24.063Z,64.04
2018-12-15T04:32:52.368Z,65.30
2018-12-15T04:35:20.606Z,64.81
2018-12-15T04:37:48.753Z,67.64
2018-12-15T04:40:17.274Z,68.91
2018-12-15T04:42:45.461Z,66.60
2018-12-15T04:45:14.040Z,65.36
2018-12-15T04:47:42.502Z,65.71
2018-12-15T04:50:10.771Z,67.44
2018-12-15T04:52:39.068Z,65.88
2018-12-15T04:55:07.233Z,67.35
2018-12-15T04:57:35.477Z,66.18
2018-12-15T05:00:03.955Z,67.02
2018-12-15T05:02:32.076Z,65.37
2018-12-15T05:05:00.252Z,65.75
2018-12-15T05:07:28.509Z,64.99
2018-12-15T05:09:56.722Z,65.89
2018-12-15T05:12:24.867Z,66.74
2018-12-15T05:14:53.099Z,66.71
2018-12-15T05:17:21.314Z,66.62
2018-12-15T05:19:49.475Z,66.34
2018-12-15T05:22:17.881Z,66.20
2018-12-15T05:24:46.039Z,66.13
2018-12-15T05:27:15.099Z,66.09
2018-12-15T05:29:43.396Z,66.09
2018-12-15T05:32:11.546Z,66.60
2018-12-15T05:34:40.031Z,65.57
2018-12-15T05:37:08.166Z,66.94
2018-12-15T05:39:36.363Z,67.21
2018-12-15T05:42:04.588Z,65.95
2018-12-15T05:44:32.861Z,66.99
2018-12-15T05:47:01.066Z,65.97
2018-12-15T05:49:29.300Z,65.54
2018-12-15T05:51:57.468Z,65.81
2018-12-15T05:54:25.615Z,67.04
2018-12-15T05:56:53.819Z,66.51
2018-12-15T05:59:22.100Z,66.96
2018-12-15T06:01:50.265Z,66.24
2018-12-15T06:04:18.555Z,67.09
2018-12-15T06:06:46.783Z,65.83
2018-12-15T06:09:15.039Z,66.47
2018-12-15T06:11:43.211Z,66.70
2018-12-15T06:14:11.404Z,69.16
2018-12-15T06:16:39.632Z,68.75
2018-12-15T06:19:07.910Z,67.42
2018-12-15T06:21:36.060Z,67.58
2018-12-15T06:24:04.613Z,67.39
2018-12-15T06:26:32.824Z,67.00
2018-12-15T06:29:01.203Z,67.05
2018-12-15T06:31:29.747Z,67.14
2018-12-15T06:33:57.941Z,68.65
2018-12-15T06:36:26.125Z,67.59
2018-12-15T06:38:54.582Z,67.26
2018-12-15T06:41:22.789Z,67.80
2018-12-15T06:43:51.141Z,67.64
2018-12-15T06:46:19.731Z,68.12
2018-12-15T06:48:48.027Z,68.34
2018-12-15T06:51:16.300Z,67.08
2018-12-15T06:53:44.956Z,66.15
2018-12-15T06:56:13.157Z,66.60
2018-12-15T06:58:41.434Z,67.23
2018-12-15T07:01:09.614Z,68.08
2018-12-15T07:03:37.883Z,66.67
2018-12-15T07:06:06.106Z,67.01
2018-12-15T07:08:34.338Z,67.05
2018-12-15T07:11:02.507Z,65.57
2018-12-15T07:13:30.679Z,65.85
2018-12-15T07:15:59.202Z,65.77
2018-12-15T07:18:27.433Z,65.98
2018-12-15T07:20:55.624Z,67.13
2018-12-15T07:23:23.777Z,66.76
2018-12-15T07:25:52.106Z,68.14
2018-12-15T07:28:20.353Z,67.04
2018-12-15T07:30:48.803Z,66.84
2018-12-15T07:33:16.940Z,65.61
2018-12-15T07:35:45.741Z,66.76
2018-12-15T07:38:13.890Z,66.81
2018-12-15T07:40:42.020Z,65.21
2018-12-15T07:43:10.299Z,63.88
2018-12-15T07:45:38.450Z,65.77
2018-12-15T07:48:06.643Z,64.64
2018-12-15T07:50:34.827Z,65.00
2018-12-15T07:53:03.092Z,64.77
2018-12-15T07:55:31.275Z,66.47
2018-12-15T07:57:59.510Z,66.06
2018-12-15T08:00:27.653Z,65.88
2018-12-15T08:02:55.981Z,67.72
2018-12-15T08:05:25.576Z,66.61
2018-12-15T08:07:53.815Z,66.84
2018-12-15T08:10:23.608Z,68.17
2018-12-15T08:12:57.196Z,67.13
2018-12-15T08:15:26.022Z,67.91
2018-12-15T08:17:58.367Z,68.05
2018-12-15T08:20:26.555Z,66.27
2018-12-15T08:22:54.787Z,66.03
2018-12-15T08:25:22.979Z,65.73
2018-12-15T08:27:51.379Z,65.69
2018-12-15T08:30:19.644Z,66.54
2018-12-15T08:32:49.288Z,67.57
2018-12-15T08:35:18.553Z,66.20
2018-12-15T08:37:46.911Z,65.41
2018-12-15T08:40:15.956Z,66.74
2018-12-15T08:42:44.183Z,65.40
2018-12-15T08:45:12.987Z,64.31
2018-12-15T08:47:41.332Z,65.56
2018-12-15T08:50:10.091Z,66.07
2018-12-15T08:52:38.531Z,66.08
2018-12-15T08:55:07.374Z,66.61
2018-12-15T08:57:35.613Z,66.89
2018-12-15T09:00:04.633Z,67.54
2018-12-15T09:02:33.005Z,65.11
2018-12-15T09:05:01.295Z,65.92
2018-12-15T09:07:29.761Z,66.90
2018-12-15T09:09:58.139Z,65.97
2018-12-15T09:12:26.449Z,65.86
2018-12-15T09:14:54.731Z,66.41
2018-12-15T09:17:22.950Z,65.75
2018-12-15T09:19:52.137Z,65.59
2018-12-15T09:22:20.604Z,66.47
2018-12-15T09:24:48.745Z,66.46
2018-12-15T09:27:17.727Z,67.73
2018-12-15T09:29:45.918Z,66.27
2018-12-15T09:32:14.250Z,66.51
2018-12-15T09:34:43.243Z,65.85
2018-12-15T09:37:11.482Z,66.68
2018-12-15T09:39:39.644Z,66.39
2018-12-15T09:42:07.941Z,65.38
2018-12-15T09:44:36.084Z,66.85
2018-12-15T09:47:04.729Z,65.91
2018-12-15T09:49:32.987Z,64.86
2018-12-15T09:52:01.197Z,65.33
2018-12-15T09:54:29.755Z,66.39
2018-12-15T09:56:58.086Z,65.97
2018-12-15T09:59:26.363Z,66.15
2018-12-15T10:01:54.995Z,64.55
2018-12-15T10:04:23.267Z,64.72
2018-12-15T10:06:51.574Z,64.88
2018-12-15T10:09:19.752Z,65.58
2018-12-15T10:11:48.970Z,65.49
2018-12-15T10:14:17.823Z,65.36
2018-12-15T10:16:47.399Z,66.25
2018-12-15T10:19:15.594Z,65.97
2018-12-15T10:21:43.799Z,64.95
2018-12-15T10:24:12.015Z,65.84
2018-12-15T10:26:40.212Z,66.15
2018-12-15T10:29:12.656Z,64.41
2018-12-15T10:31:46.605Z,66.47
2018-12-15T10:34:14.852Z,66.80
2018-12-15T10:36:43.223Z,64.36
2018-12-15T10:39:12.376Z,65.31
2018-12-15T10:41:41.252Z,63.56
2018-12-15T10:44:09.612Z,64.54
2018-12-15T10:46:37.889Z,63.74
2018-12-15T10:49:06.280Z,64.07
2018-12-15T10:51:34.484Z,62.56
2018-12-15T10:54:03.155Z,62.57
2018-12-15T10:56:31.494Z,63.21
2018-12-15T10:59:00.557Z,63.42
2018-12-15T11:01:31.662Z,62.87
2018-12-15T11:04:00.837Z,61.89
2018-12-15T11:06:29.274Z,62.26
2018-12-15T11:08:57.447Z,61.96
2018-12-15T11:11:25.746Z,62.10
2018-12-15T11:13:53.886Z,61.12
2018-12-15T11:16:22.842Z,62.12
2018-12-15T11:18:51.110Z,63.46
2018-12-15T11:21:19.386Z,63.41
2018-12-15T11:23:47.745Z,62.65
2018-12-15T11:26:16.035Z,63.72
2018-12-15T11:28:44.235Z,63.71
2018-12-15T11:31:13.192Z,64.55
2018-12-15T11:33:41.401Z,65.08
2018-12-15T11:36:09.994Z,61.32
2018-12-15T11:38:39.006Z,61.75
2018-12-15T11:41:07.277Z,61.50
2018-12-15T11:43:35.770Z,61.46
2018-12-15T11:46:04.057Z,61.08
2018-12-15T11:48:32.184Z,62.64
2018-12-15T11:51:00.531Z,61.50
2018-12-15T11:53:29.186Z,61.17
2018-12-15T11:55:57.442Z,62.09
2018-12-15T11:58:25.617Z,61.40
2018-12-15T12:00:55.142Z,61.66
2018-12-15T12:03:23.343Z,61.44
2018-12-15T12:05:51.602Z,61.93
2018-12-15T12:08:19.796Z,63.22
2018-12-15T12:10:48.206Z,61.92
2018-12-15T12:13:20.157Z,60.62
2018-12-15T12:15:48.389Z,62.22
2018-12-15T12:18:16.651Z,62.13
2018-12-15T12:20:45.257Z,61.90
2018-12-15T12:23:13.472Z,61.15
2018-12-15T12:25:41.735Z,61.55
2018-12-15T12:28:09.942Z,62.37
2018-12-15T12:30:38.091Z,63.73
2018-12-15T12:33:06.322Z,61.91
2018-12-15T12:35:34.625Z,63.12
2018-12-15T12:38:03.231Z,62.53
2018-12-15T12:40:31.487Z,63.01
2018-12-15T12:43:01.009Z,63.55
2018-12-15T12:45:29.336Z,63.00
2018-12-15T12:47:57.637Z,62.44
2018-12-15T12:50:26.234Z,62.27
2018-12-15T12:52:54.507Z,62.64
2018-12-15T12:55:22.878Z,63.22
2018-12-15T12:57:51.972Z,63.57
2018-12-15T13:00:20.110Z,62.51
2018-12-15T13:02:48.908Z,62.85
2018-12-15T13:05:17.203Z,62.41
2018-12-15T13:07:45.417Z,62.76
2018-12-15T13:10:13.632Z,60.36
2018-12-15T13:12:41.864Z,60.14
2018-12-15T13:15:10.053Z,61.57
2018-12-15T13:17:38.329Z,60.10
2018-12-15T13:20:07.274Z,60.17
2018-12-15T13:22:35.739Z,60.28
2018-12-15T13:25:04.167Z,59.83
2018-12-15T13:27:32.492Z,60.80
2018-12-15T13:30:00.823Z,60.94
2018-12-15T13:32:29.068Z,59.06
2018-12-15T13:34:57.759Z,59.84
2018-12-15T13:37:26.082Z,63.13
2018-12-15T13:39:54.356Z,60.98
2018-12-15T13:42:23.156Z,61.99
2018-12-15T13:44:51.344Z,61.09
2018-12-15T13:47:19.589Z,61.19
2018-12-15T13:49:47.828Z,62.37
2018-12-15T13:52:16.079Z,63.50
2018-12-15T13:54:44.346Z,64.27
2018-12-15T13:57:12.584Z,64.57
2018-12-15T13:59:41.652Z,64.95
2018-12-15T14:02:09.959Z,65.63
2018-12-15T14:04:38.193Z,64.44
2018-12-15T14:07:06.865Z,64.89
2018-12-15T14:09:35.102Z,63.26
2018-12-15T14:12:04.028Z,62.84
2018-12-15T14:14:32.313Z,63.11
2018-12-15T14:17:00.521Z,64.25
2018-12-15T14:19:28.790Z,63.71
2018-12-15T14:21:57.969Z,63.28
2018-12-15T14:24:26.188Z,64.29
2018-12-15T14:26:54.408Z,63.05
2018-12-15T14:29:22.773Z,64.58
2018-12-15T14:31:50.975Z,63.95
2018-12-15T14:34:20.437Z,65.15
2018-12-15T14:36:48.844Z,64.15
2018-12-15T14:39:18.231Z,66.08
2018-12-15T14:41:46.573Z,66.13
2018-12-15T14:44:15.051Z,65.67
2018-12-15T14:46:43.568Z,64.93
2018-12-15T14:49:11.935Z,65.47
2018-12-15T14:51:40.205Z,65.21
2018-12-15T14:54:08.573Z,65.22
2018-12-15T14:56:36.756Z,65.33
2018-12-15T14:59:05.031Z,65.65
2018-12-15T15:01:33.548Z,64.79
2018-12-15T15:04:02.176Z,64.88
2018-12-15T15:06:30.481Z,65.52
2018-12-15T15:08:58.641Z,66.05
2018-12-15T15:11:26.799Z,66.21
2018-12-15T15:13:55.040Z,65.91
2018-12-15T15:16:23.565Z,67.75
2018-12-15T15:18:51.692Z,66.65
2018-12-15T15:21:19.848Z,67.41
2018-12-15T15:23:48.065Z,67.25
2018-12-15T15:26:16.203Z,67.11
2018-12-15T15:28:44.344Z,69.19
2018-12-15T15:31:12.488Z,68.52
2018-12-15T15:33:40.680Z,67.71
2018-12-15T15:36:08.933Z,67.85
2018-12-15T15:38:37.199Z,68.21
2018-12-15T15:41:05.328Z,68.48
2018-12-15T15:43:33.958Z,68.26
2018-12-15T15:46:02.111Z,69.33
2018-12-15T15:48:30.311Z,68.78
2018-12-15T15:50:58.471Z,70.11
2018-12-15T15:53:26.654Z,68.03
2018-12-15T15:55:54.882Z,67.04
2018-12-15T15:58:23.043Z,67.07
2018-12-15T16:00:51.298Z,67.15
2018-12-15T16:03:19.523Z,67.19
2018-12-15T16:05:48.003Z,67.70
2018-12-15T16:08:16.154Z,67.22
2018-12-15T16:10:44.284Z,68.59
2018-12-15T16:13:12.787Z,70.21
2018-12-15T16:15:41.009Z,70.49
2018-12-15T16:18:09.313Z,70.30
2018-12-15T16:20:43.222Z,70.68
2018-12-15T16:23:07.640Z,69.91
2018-12-15T16:25:35.778Z,70.23
2018-12-15T16:28:03.922Z,69.55
2018-12-15T16:30:32.102Z,71.55
2018-12-15T16:33:00.257Z,69.89
2018-12-15T16:35:28.467Z,71.03
2018-12-15T16:37:56.978Z,71.33
2018-12-15T16:40:25.244Z,71.37
2018-12-15T16:42:55.050Z,70.04
2018-12-15T16:45:23.937Z,70.76
2018-12-15T16:47:52.324Z,71.37
2018-12-15T16:50:20.836Z,72.58
2018-12-15T16:52:49.249Z,73.42
2018-12-15T16:55:17.780Z,70.89
2018-12-15T16:57:47.150Z,71.20
2018-12-15T17:00:16.436Z,71.31
2018-12-15T17:02:45.683Z,70.76
2018-12-15T17:05:14.260Z,71.71
2018-12-15T17:07:42.513Z,72.64
2018-12-15T17:10:11.034Z,70.61
2018-12-15T17:12:39.210Z,70.46
2018-12-15T17:15:09.292Z,70.67
2018-12-15T17:17:37.514Z,71.75
2018-12-15T17:20:07.059Z,71.89
2018-12-15T17:22:35.380Z,70.83
2018-12-15T17:25:03.766Z,70.12
2018-12-15T17:27:32.120Z,71.48
2018-12-15T17:30:01.406Z,70.86
2018-12-15T17:32:31.007Z,71.89
2018-12-15T17:34:59.435Z,71.59
2018-12-15T17:37:27.800Z,71.09
2018-12-15T17:39:56.464Z,71.94
2018-12-15T17:42:24.742Z,70.89
2018-12-15T17:44:53.988Z,71.72
2018-12-15T17:47:22.429Z,71.70
2018-12-15T17:50:15.041Z,71.26
2018-12-15T17:52:43.783Z,72.37
2018-12-15T17:55:12.344Z,71.62
2018-12-15T17:57:40.540Z,71.88
2018-12-15T18:00:11.287Z,71.44
2018-12-15T18:02:40.761Z,71.69
2018-12-15T18:05:09.061Z,71.88
2018-12-15T18:07:37.337Z,72.48
2018-12-15T18:10:07.219Z,71.59
2018-12-15T18:12:35.533Z,71.34
2018-12-15T18:15:03.899Z,71.82
2018-12-15T18:17:33.875Z,70.77
2018-12-15T18:20:02.175Z,71.60
2018-12-15T18:22:31.494Z,72.35
2018-12-15T18:24:59.664Z,72.96
2018-12-15T18:27:27.920Z,71.45
2018-12-15T18:29:56.224Z,72.35
2018-12-15T18:32:24.394Z,71.09
2018-12-15T18:34:52.580Z,70.76
2018-12-15T18:37:20.905Z,72.13
2018-12-15T18:39:49.969Z,71.33
2018-12-15T18:42:18.159Z,71.98
2018-12-15T18:44:46.376Z,73.03
2018-12-15T18:47:15.341Z,72.35
2018-12-15T18:49:43.537Z,71.57
2018-12-15T18:52:11.691Z,72.94
2018-12-15T18:54:39.901Z,72.55
2018-12-15T18:57:08.444Z,71.67
2018-12-15T18:59:36.657Z,73.11
2018-12-15T19:02:04.921Z,72.78
2018-12-15T19:04:33.223Z,73.45
2018-12-15T19:07:01.399Z,73.35
2018-12-15T19:09:29.542Z,73.58
2018-12-15T19:11:57.722Z,73.78
2018-12-15T19:14:26.265Z,72.85
2018-12-15T19:16:54.575Z,73.78
2018-12-15T19:19:22.858Z,73.85
2018-12-15T19:21:51.150Z,73.40
2018-12-15T19:24:19.288Z,73.52
2018-12-15T19:26:50.631Z,72.52
2018-12-15T19:29:18.810Z,72.68
2018-12-15T19:31:46.995Z,73.25
2018-12-15T19:34:17.603Z,73.52
2018-12-15T19:36:45.392Z,73.87
2018-12-15T19:39:13.556Z,72.77
2018-12-15T19:41:41.860Z,73.30
2018-12-15T19:44:10.099Z,72.68
2018-12-15T19:46:38.287Z,72.00
2018-12-15T19:49:06.508Z,71.50
2018-12-15T19:51:34.748Z,71.39
2018-12-15T19:54:03.013Z,72.06
2018-12-15T19:56:31.216Z,71.50
2018-12-15T19:58:59.359Z,71.31
2018-12-15T20:01:27.646Z,72.12
2018-12-15T20:03:55.870Z,71.53
2018-12-15T20:06:24.183Z,71.30
2018-12-15T20:08:52.565Z,71.33
2018-12-15T20:11:20.747Z,72.03
2018-12-15T20:13:49.006Z,72.00
2018-12-15T20:16:17.198Z,71.68
2018-12-15T20:18:45.375Z,71.87
2018-12-15T20:21:13.526Z,71.55
2018-12-15T20:23:41.745Z,71.28
2018-12-15T20:26:09.997Z,71.10
2018-12-15T20:28:38.155Z,71.15
2018-12-15T20:31:06.313Z,71.88
2018-12-15T20:33:34.494Z,72.26
2018-12-15T20:36:02.634Z,70.69
2018-12-15T20:38:30.788Z,70.00
2018-12-15T20:40:59.017Z,71.59
2018-12-15T20:43:27.241Z,72.50
2018-12-15T20:45:55.383Z,71.10
2018-12-15T20:48:23.650Z,70.25
2018-12-15T20:50:51.859Z,70.60
2018-12-15T20:53:20.090Z,71.13
2018-12-15T20:55:49.667Z,71.57
2018-12-15T20:58:18.176Z,71.43
2018-12-15T21:00:46.365Z,70.81
2018-12-15T21:03:15.005Z,71.41
2018-12-15T21:05:43.203Z,70.98
2018-12-15T21:08:11.383Z,71.58
2018-12-15T21:10:39.672Z,71.14
2018-12-15T21:13:07.935Z,70.18
2018-12-15T21:15:40.643Z,70.32
2018-12-15T21:18:08.798Z,70.21
2018-12-15T21:20:36.957Z,70.33
2018-12-15T21:23:05.418Z,70.69
2018-12-15T21:25:33.561Z,71.98
2018-12-15T21:28:01.708Z,70.13
2018-12-15T21:30:30.040Z,70.18
2018-12-15T21:32:58.194Z,70.89
2018-12-15T21:35:26.793Z,70.53
2018-12-15T21:37:55.101Z,70.21
2018-12-15T21:40:23.271Z,70.94
2018-12-15T21:42:51.621Z,70.66
2018-12-15T21:45:19.811Z,70.16
2018-12-15T21:47:47.991Z,70.24
2018-12-15T21:50:16.598Z,69.70
2018-12-15T21:52:44.759Z,69.47
2018-12-15T21:55:12.915Z,69.08
2018-12-15T21:57:41.119Z,69.11
2018-12-15T22:00:09.587Z,69.71
2018-12-15T22:02:37.741Z,70.18
2018-12-15T22:05:06.562Z,69.59
2018-12-15T22:07:34.819Z,69.19
2018-12-15T22:10:03.250Z,69.19
2018-12-15T22:12:31.439Z,69.44
2018-12-15T22:14:59.627Z,69.70
2018-12-15T22:17:28.104Z,68.74
2018-12-15T22:19:56.401Z,69.59
2018-12-15T22:22:24.666Z,70.08
2018-12-15T22:24:53.130Z,69.96
2018-12-15T22:27:21.326Z,69.69
2018-12-15T22:29:50.083Z,69.59
2018-12-15T22:32:18.287Z,70.53
2018-12-15T22:34:46.461Z,70.04
2018-12-15T22:37:14.651Z,70.37
2018-12-15T22:39:42.796Z,70.51
2018-12-15T22:42:10.987Z,70.82
2018-12-15T22:44:39.165Z,69.84
2018-12-15T22:47:07.427Z,70.66
2018-12-15T22:49:35.601Z,70.33
2018-12-15T22:52:09.597Z,70.51
2018-12-15T22:54:34.015Z,69.86
2018-12-15T22:57:02.924Z,70.14
2018-12-15T22:59:31.071Z,69.42
2018-12-15T23:01:59.950Z,70.87
2018-12-15T23:04:28.129Z,71.74
2018-12-15T23:06:56.292Z,74.10
2018-12-15T23:09:24.623Z,75.81
2018-12-15T23:11:52.755Z,75.31
2018-12-15T23:14:20.921Z,77.08
2018-12-15T23:16:49.215Z,78.04
2018-12-15T23:19:17.464Z,79.09
2018-12-15T23:21:45.659Z,77.96
2018-12-15T23:24:13.819Z,79.65
2018-12-15T23:26:41.987Z,79.77
2018-12-15T23:29:10.171Z,80.07
2018-12-15T23:31:38.307Z,81.78
2018-12-15T23:34:07.815Z,81.57
2018-12-15T23:36:35.975Z,82.13
2018-12-15T23:39:06.978Z,83.27
2018-12-15T23:41:35.135Z,83.12
2018-12-15T23:44:03.314Z,83.44
2018-12-15T23:46:31.631Z,83.18
2018-12-15T23:48:59.774Z,84.18
2018-12-15T23:51:28.146Z,84.47
2018-12-15T23:53:56.439Z,84.79
2018-12-15T23:56:24.621Z,84.51
2018-12-15T23:58:52.772Z,85.52
